To NAV CANADA Home Page Login to a new session Search on AWWS site Feedback and Comments Disclaimer Vers la page française équivalente Tips FAQ What's new on the site To the Forecasts and Observations / NOTAM section To "File a Flight Plan" website Publications and other links Update of the User's profile FIC Telephone Numbers My Weather Data Folder Route Weather Data Regional Weather Data Local Weather Data To the Forecasts and Observations / NOTAM section
Request Generated 05/25/2017 at 01:11:32 UTC . Weather information available at that time is displayed.

METAR/TAF

SARNIA (CHRIS HADFIELD)/ON    (show WxCam)

METAR CYZR 250100Z AUTO 05009KT 6SM BR BKN050 OVC055 15/14 A2955 RMK
SLP009 DENSITY ALT 1100FT=
SPECI CYZR 250058Z AUTO 05009KT 6SM BR OVC050 15/14 A2955 RMK SLP009
DENSITY ALT 1100FT=
SPECI CYZR 250042Z AUTO 04008KT 5SM BR OVC055 14/13 A2956 RMK SLP011
DENSITY ALT 1000FT=
SPECI CYZR 250003Z AUTO 04007KT 6SM BR BKN039 OVC047 15/14 A2957 RMK
SLP013 DENSITY ALT 1000FT=
METAR CYZR 250000Z AUTO 04007KT 5SM BR BKN042 OVC050 14/14 A2957 RMK
PCPN 0.5MM PAST HR SLP014 DENSITY ALT 1000FT=
SPECI CYZR 242340Z AUTO 36005KT 3SM BR BKN050 OVC060 14/13 A2956 RMK
SLP013 DENSITY ALT 900FT=
SPECI CYZR 242337Z AUTO 36004KT 2 1/2SM BR BKN050 OVC060 14/13 A2956
RMK SLP013 DENSITY ALT 900FT=
SPECI CYZR 242301Z AUTO 34007KT 2 1/4SM -RA BR FEW060 BKN072 OVC097
14/12 A2957 RMK SLP015 DENSITY ALT 900FT=
METAR CYZR 242300Z AUTO 34006KT 3SM -RA BR FEW044 SCT060 BKN072
OVC096 14/12 A2957 RMK SLP015 DENSITY ALT 900FT=

TAF AMD CYZR 242319Z 2423/2502 34008KT P6SM BKN090 TEMPO 2423/2502
21/2SM -SHRA BR BKN025 OVC090 PROB30 2423/2502 11/2SM -SHRA BR
RMK FCST BASED ON AUTO OBS. NXT FCST WILL BE ISSUED AT 250745Z=
Your time UTC time
Weather data provided by Environment Canada and NAV CANADA